createdAt,value
2023-10-10T00:00:49.173Z,69.33
2023-10-10T00:03:18.850Z,68.90
2023-10-10T00:05:48.320Z,68.43
2023-10-10T00:08:18.390Z,68.90
2023-10-10T00:10:52.382Z,69.08
2023-10-10T00:13:20.786Z,68.96
2023-10-10T00:15:52.488Z,68.47
2023-10-10T00:18:21.114Z,68.19
2023-10-10T00:21:07.367Z,69.06
2023-10-10T00:23:42.929Z,69.92
2023-10-10T00:26:16.022Z,69.91
2023-10-10T00:28:53.400Z,70.41
2023-10-10T00:31:21.581Z,70.63
2023-10-10T00:33:51.745Z,70.52
2023-10-10T00:36:29.674Z,71.13
2023-10-10T00:39:00.124Z,72.13
2023-10-10T00:41:29.045Z,71.54
2023-10-10T00:43:59.938Z,72.51
2023-10-10T00:46:30.297Z,72.33
2023-10-10T00:49:02.549Z,73.42
2023-10-10T00:51:32.822Z,72.89
2023-10-10T00:54:14.539Z,72.51
2023-10-10T00:56:45.823Z,72.25
2023-10-10T00:59:17.728Z,71.24
2023-10-10T01:01:47.153Z,71.22
2023-10-10T01:04:29.686Z,71.08
2023-10-10T01:07:00.161Z,71.63
2023-10-10T01:09:35.197Z,71.56
2023-10-10T01:12:05.910Z,70.80
2023-10-10T01:14:34.067Z,70.93
2023-10-10T01:17:03.908Z,71.51
2023-10-10T01:19:32.962Z,71.78
2023-10-10T01:22:05.356Z,71.26
2023-10-10T01:24:33.535Z,71.06
2023-10-10T01:27:18.533Z,71.52
2023-10-10T01:29:51.600Z,71.80
2023-10-10T01:32:21.450Z,71.56
2023-10-10T01:34:49.971Z,71.14
2023-10-10T01:37:25.930Z,70.94
2023-10-10T01:40:11.231Z,71.31
2023-10-10T01:42:46.124Z,71.67
2023-10-10T01:45:19.884Z,71.51
2023-10-10T01:47:58.026Z,71.56
2023-10-10T01:50:29.691Z,72.13
2023-10-10T01:52:59.253Z,72.79
2023-10-10T01:55:28.427Z,72.12
2023-10-10T01:57:58.795Z,72.41
2023-10-10T02:00:36.197Z,71.73
2023-10-10T02:03:05.900Z,72.65
2023-10-10T02:05:48.294Z,72.87
2023-10-10T02:08:18.774Z,72.97
2023-10-10T02:10:51.741Z,73.37
2023-10-10T02:13:21.023Z,73.57
2023-10-10T02:15:52.928Z,73.07
2023-10-10T02:18:33.420Z,73.62
2023-10-10T02:21:07.521Z,73.29
2023-10-10T02:23:36.769Z,73.62
2023-10-10T02:26:15.713Z,73.39
2023-10-10T02:28:50.545Z,73.52
2023-10-10T02:31:20.436Z,72.78
2023-10-10T02:33:56.244Z,73.53
2023-10-10T02:36:32.015Z,73.59
2023-10-10T02:39:19.849Z,74.56
2023-10-10T02:41:51.982Z,75.15
2023-10-10T02:44:39.559Z,74.39
2023-10-10T02:47:08.009Z,74.14
2023-10-10T02:49:39.175Z,74.19
2023-10-10T02:52:09.251Z,74.54
2023-10-10T02:54:45.113Z,74.64
2023-10-10T02:57:32.255Z,74.99
2023-10-10T03:00:29.421Z,76.26
2023-10-10T03:03:00.057Z,76.29
2023-10-10T03:05:40.780Z,76.68
2023-10-10T03:08:16.066Z,76.49
2023-10-10T03:10:57.299Z,76.55
2023-10-10T03:13:37.338Z,75.96
2023-10-10T03:16:42.666Z,75.69
2023-10-10T03:19:28.879Z,75.24
2023-10-10T03:22:13.164Z,74.94
2023-10-10T03:25:05.574Z,74.51
2023-10-10T03:27:55.881Z,74.97
2023-10-10T03:30:35.914Z,74.86
2023-10-10T03:33:17.692Z,74.65
2023-10-10T03:36:00.682Z,74.18
2023-10-10T03:38:45.453Z,74.54
2023-10-10T03:41:48.934Z,75.33
2023-10-10T03:44:35.910Z,74.08
2023-10-10T03:47:21.202Z,75.21
2023-10-10T03:50:17.997Z,74.22
2023-10-10T03:53:03.388Z,74.51
2023-10-10T03:55:49.116Z,76.25
2023-10-10T03:58:34.512Z,76.05
2023-10-10T04:01:21.264Z,75.46
2023-10-10T04:04:06.867Z,76.16
2023-10-10T04:06:52.204Z,75.23
2023-10-10T04:09:37.838Z,75.49
2023-10-10T04:12:23.337Z,75.66
2023-10-10T04:15:08.469Z,75.44
2023-10-10T04:17:55.665Z,75.36
2023-10-10T04:20:41.014Z,75.32
2023-10-10T04:23:26.440Z,74.93
2023-10-10T04:26:23.308Z,75.04
2023-10-10T04:29:09.022Z,75.67
2023-10-10T04:31:54.344Z,75.84
2023-10-10T04:34:41.142Z,75.41
2023-10-10T04:37:26.759Z,75.74
2023-10-10T04:40:11.857Z,75.61
2023-10-10T04:42:57.519Z,76.05
2023-10-10T04:45:42.969Z,76.20
2023-10-10T04:48:28.556Z,75.64
2023-10-10T04:51:18.036Z,76.24
2023-10-10T04:54:03.454Z,76.29
2023-10-10T04:56:48.812Z,77.01
2023-10-10T04:59:34.418Z,76.06
2023-10-10T05:02:21.693Z,76.36
2023-10-10T05:05:07.238Z,75.83
2023-10-10T05:07:53.731Z,76.81
2023-10-10T05:10:39.206Z,76.79
2023-10-10T05:13:27.433Z,76.82
2023-10-10T05:16:13.168Z,76.96
2023-10-10T05:18:58.395Z,76.72
2023-10-10T05:21:43.645Z,76.76
2023-10-10T05:24:15.810Z,77.89
2023-10-10T05:26:48.234Z,77.59
2023-10-10T05:29:20.839Z,78.24
2023-10-10T05:31:48.947Z,77.58
2023-10-10T05:34:17.195Z,76.92
2023-10-10T05:36:45.920Z,77.04
2023-10-10T05:39:18.922Z,76.60
2023-10-10T05:41:48.499Z,76.35
2023-10-10T05:44:18.041Z,76.09
2023-10-10T05:46:46.099Z,76.32
2023-10-10T05:49:13.745Z,76.29
2023-10-10T05:51:42.540Z,75.91
2023-10-10T05:54:12.175Z,76.85
2023-10-10T05:56:42.346Z,77.11
2023-10-10T05:59:10.411Z,77.55
2023-10-10T06:01:39.666Z,76.37
2023-10-10T06:04:08.676Z,76.20
2023-10-10T06:06:38.286Z,76.46
2023-10-10T06:09:07.192Z,76.79
2023-10-10T06:11:35.909Z,76.37
2023-10-10T06:14:06.259Z,76.64
2023-10-10T06:16:34.177Z,76.21
2023-10-10T06:19:02.479Z,75.68
2023-10-10T06:21:31.105Z,76.35
2023-10-10T06:23:58.943Z,76.59
2023-10-10T06:26:26.610Z,77.09
2023-10-10T06:28:55.648Z,77.99
2023-10-10T06:31:34.763Z,78.35
2023-10-10T06:34:20.557Z,78.99
2023-10-10T06:36:49.358Z,78.43
2023-10-10T06:39:20.717Z,78.76
2023-10-10T06:41:51.339Z,79.48
2023-10-10T06:44:33.328Z,79.70
2023-10-10T06:47:09.970Z,79.44
2023-10-10T06:49:45.504Z,78.50
2023-10-10T06:52:19.307Z,77.46
2023-10-10T06:54:54.833Z,77.69
2023-10-10T06:57:36.699Z,77.04
2023-10-10T07:00:19.147Z,76.94
2023-10-10T07:02:50.880Z,77.29
2023-10-10T07:05:20.495Z,77.14
2023-10-10T07:07:53.387Z,77.20
2023-10-10T07:10:27.370Z,77.76
2023-10-10T07:12:59.245Z,78.19
2023-10-10T07:15:27.395Z,78.42
2023-10-10T07:18:10.228Z,78.61
2023-10-10T07:20:55.776Z,78.05
2023-10-10T07:23:23.858Z,77.51
2023-10-10T07:26:00.445Z,78.14
2023-10-10T07:28:29.149Z,78.34
2023-10-10T07:30:57.385Z,79.07
2023-10-10T07:33:31.163Z,78.53
2023-10-10T07:36:00.901Z,78.62
2023-10-10T07:38:30.227Z,78.82
2023-10-10T07:40:58.025Z,78.77
2023-10-10T07:43:28.442Z,78.33
2023-10-10T07:45:56.824Z,77.94
2023-10-10T07:48:40.501Z,77.54
2023-10-10T07:51:08.586Z,77.66
2023-10-10T07:53:43.799Z,77.24
2023-10-10T07:56:11.620Z,77.09
2023-10-10T07:58:52.056Z,76.84
2023-10-10T08:01:20.940Z,76.55
2023-10-10T08:03:50.440Z,76.34
2023-10-10T08:06:22.837Z,76.48
2023-10-10T08:09:10.138Z,76.01
2023-10-10T08:11:38.040Z,76.22
2023-10-10T08:14:08.338Z,76.23
2023-10-10T08:16:36.722Z,75.88
2023-10-10T08:19:09.574Z,75.97
2023-10-10T08:21:39.722Z,75.97
2023-10-10T08:24:13.274Z,75.21
2023-10-10T08:26:45.584Z,74.65
2023-10-10T08:29:15.396Z,74.71
2023-10-10T08:31:44.433Z,73.94
2023-10-10T08:34:14.762Z,74.06
2023-10-10T08:36:44.942Z,73.67
2023-10-10T08:39:25.750Z,72.71
2023-10-10T08:41:54.379Z,72.22
2023-10-10T08:44:22.474Z,71.89
2023-10-10T08:46:50.899Z,71.36
2023-10-10T08:49:20.562Z,71.40
2023-10-10T08:51:49.556Z,70.50
2023-10-10T08:54:18.251Z,69.49
2023-10-10T08:57:01.261Z,68.37
2023-10-10T08:59:30.691Z,68.25
2023-10-10T09:02:09.821Z,67.88
2023-10-10T09:04:38.877Z,67.63
2023-10-10T09:07:12.565Z,67.87
2023-10-10T09:09:41.258Z,67.58
2023-10-10T09:12:15.567Z,67.48
2023-10-10T09:14:44.792Z,67.19
2023-10-10T09:17:14.007Z,66.88
2023-10-10T09:19:50.101Z,66.64
2023-10-10T09:22:30.382Z,65.63
2023-10-10T09:25:00.690Z,66.07
2023-10-10T09:27:29.870Z,65.31
2023-10-10T09:29:59.045Z,64.29
2023-10-10T09:32:37.024Z,65.07
2023-10-10T09:35:10.097Z,64.20
2023-10-10T09:37:42.907Z,63.36
2023-10-10T09:40:17.737Z,62.61
2023-10-10T09:42:54.990Z,61.01
2023-10-10T09:48:55.962Z,60.17
2023-10-10T09:51:44.228Z,59.63
2023-10-10T09:54:17.234Z,59.12
2023-10-10T09:56:49.099Z,58.50
2023-10-10T09:59:19.455Z,57.68
2023-10-10T10:01:48.199Z,57.39
2023-10-10T10:04:19.412Z,57.39
2023-10-10T10:07:07.739Z,57.31
2023-10-10T10:09:48.182Z,56.93
2023-10-10T10:12:43.419Z,55.18
2023-10-10T10:15:19.713Z,54.58
2023-10-10T10:17:57.809Z,54.12
2023-10-10T10:20:33.836Z,53.75
2023-10-10T10:23:02.817Z,52.74
2023-10-10T10:25:36.450Z,53.23
2023-10-10T10:28:11.796Z,52.65
2023-10-10T10:30:52.461Z,51.86
2023-10-10T10:33:24.274Z,50.93
2023-10-10T10:36:15.897Z,52.12
2023-10-10T10:39:03.908Z,52.04
2023-10-10T10:41:44.555Z,51.96
2023-10-10T10:44:13.852Z,51.11
2023-10-10T10:46:49.083Z,52.08
2023-10-10T10:49:23.247Z,51.46
2023-10-10T10:52:12.042Z,50.14
2023-10-10T10:54:46.420Z,50.14
2023-10-10T10:57:39.528Z,49.98
2023-10-10T11:00:29.168Z,50.66
2023-10-10T11:03:01.593Z,49.90
2023-10-10T11:05:30.226Z,49.63
2023-10-10T11:08:07.668Z,49.35
2023-10-10T11:10:38.214Z,49.17
2023-10-10T11:13:09.105Z,50.93
2023-10-10T11:15:39.184Z,49.86
2023-10-10T11:18:09.975Z,49.67
2023-10-10T11:20:56.796Z,49.17
2023-10-10T11:23:33.017Z,48.66
2023-10-10T11:26:02.048Z,49.06
2023-10-10T11:28:38.567Z,48.82
2023-10-10T11:31:08.354Z,48.85
2023-10-10T11:33:50.194Z,48.47
2023-10-10T11:36:30.333Z,48.26
2023-10-10T11:39:16.693Z,47.97
2023-10-10T11:41:47.667Z,48.47
2023-10-10T11:44:20.144Z,48.58
2023-10-10T11:46:49.645Z,48.53
2023-10-10T11:49:17.545Z,48.45
2023-10-10T11:51:45.211Z,48.80
2023-10-10T11:54:12.875Z,48.95
2023-10-10T11:56:41.924Z,49.45
2023-10-10T11:59:12.112Z,49.66
2023-10-10T12:01:53.152Z,49.41
2023-10-10T12:04:33.141Z,49.32
2023-10-10T12:07:03.473Z,48.90
2023-10-10T12:09:33.710Z,49.53
2023-10-10T12:12:04.221Z,49.74
2023-10-10T12:14:33.620Z,49.80
2023-10-10T12:17:06.508Z,49.64
2023-10-10T12:19:38.291Z,49.52
2023-10-10T12:22:11.705Z,49.97
2023-10-10T12:24:40.438Z,49.86
2023-10-10T12:27:10.177Z,49.52
2023-10-10T12:29:41.629Z,49.96
2023-10-10T12:32:17.410Z,49.96
2023-10-10T12:34:46.797Z,49.73
2023-10-10T12:37:16.673Z,50.20
2023-10-10T12:39:44.447Z,49.79
2023-10-10T12:42:12.613Z,49.83
2023-10-10T12:44:48.866Z,49.97
2023-10-10T12:47:18.655Z,49.99
2023-10-10T12:49:46.624Z,49.11
2023-10-10T12:52:14.331Z,48.96
2023-10-10T12:54:43.553Z,47.94
2023-10-10T12:57:15.534Z,47.59
2023-10-10T12:59:47.965Z,47.83
2023-10-10T13:02:17.771Z,47.78
2023-10-10T13:04:48.415Z,46.83
2023-10-10T13:07:17.800Z,46.76
2023-10-10T13:09:47.749Z,46.73
2023-10-10T13:12:28.834Z,47.74
2023-10-10T13:15:17.657Z,47.32
2023-10-10T13:17:54.472Z,47.71
2023-10-10T13:20:23.055Z,48.31
2023-10-10T13:22:52.392Z,48.20
2023-10-10T13:25:21.371Z,47.91
2023-10-10T13:27:53.242Z,47.87
2023-10-10T13:30:22.465Z,47.54
2023-10-10T13:32:50.607Z,47.59
2023-10-10T13:35:21.029Z,48.01
2023-10-10T13:37:48.915Z,47.67
2023-10-10T13:40:22.459Z,47.91
2023-10-10T13:42:50.395Z,47.99
2023-10-10T13:45:27.900Z,48.13
2023-10-10T13:47:58.927Z,48.14
2023-10-10T13:50:42.205Z,47.67
2023-10-10T13:53:13.502Z,47.23
2023-10-10T13:55:42.963Z,47.48
2023-10-10T13:58:13.075Z,48.46
2023-10-10T14:00:42.445Z,48.02
2023-10-10T14:03:15.864Z,48.19
2023-10-10T14:06:01.509Z,47.42
2023-10-10T14:08:31.564Z,47.04
2023-10-10T14:11:00.346Z,46.93
2023-10-10T14:13:28.975Z,47.30
2023-10-10T14:15:57.471Z,48.23
2023-10-10T14:18:28.718Z,47.04
2023-10-10T14:20:57.000Z,47.13
2023-10-10T14:23:26.254Z,46.88
2023-10-10T14:26:04.345Z,46.93
2023-10-10T14:28:33.343Z,47.21
2023-10-10T14:31:01.782Z,47.12
2023-10-10T14:33:30.880Z,47.44
2023-10-10T14:35:58.740Z,47.24
2023-10-10T14:38:26.407Z,46.89
2023-10-10T14:40:53.998Z,46.94
2023-10-10T14:43:21.725Z,47.21
2023-10-10T14:45:51.298Z,47.51
2023-10-10T14:48:20.910Z,46.97
2023-10-10T14:50:53.637Z,47.28
2023-10-10T14:53:23.549Z,46.91
2023-10-10T14:55:52.728Z,46.72
2023-10-10T14:58:22.876Z,46.40
2023-10-10T15:00:53.758Z,47.04
2023-10-10T15:03:24.631Z,47.06
2023-10-10T15:05:54.170Z,46.83
2023-10-10T15:08:23.943Z,46.78
2023-10-10T15:10:54.434Z,47.17
2023-10-10T15:13:23.170Z,47.30
2023-10-10T15:15:50.765Z,46.43
2023-10-10T15:18:19.547Z,46.41
2023-10-10T15:20:49.936Z,46.38
2023-10-10T15:23:21.432Z,46.22
2023-10-10T15:25:55.239Z,46.58
2023-10-10T15:28:24.530Z,46.77
2023-10-10T15:30:52.262Z,46.85
2023-10-10T15:33:20.116Z,47.19
2023-10-10T15:35:51.329Z,47.47
2023-10-10T15:38:23.860Z,47.66
2023-10-10T15:40:53.335Z,47.64
2023-10-10T15:43:32.364Z,47.36
2023-10-10T15:46:01.770Z,47.68
2023-10-10T15:48:29.660Z,48.35
2023-10-10T15:50:58.445Z,48.57
2023-10-10T15:53:27.832Z,49.00
2023-10-10T15:56:12.913Z,49.00
2023-10-10T15:58:43.250Z,49.12
2023-10-10T16:01:15.477Z,49.12
2023-10-10T16:03:48.573Z,49.24
2023-10-10T16:06:19.744Z,49.49
2023-10-10T16:08:50.722Z,49.54
2023-10-10T16:11:18.506Z,49.52
2023-10-10T16:13:47.364Z,50.33
2023-10-10T16:16:15.586Z,50.92
2023-10-10T16:18:46.909Z,50.80
2023-10-10T16:21:16.213Z,51.01
2023-10-10T16:23:45.480Z,51.51
2023-10-10T16:26:16.265Z,51.91
2023-10-10T16:28:44.002Z,51.57
2023-10-10T16:31:12.845Z,53.32
2023-10-10T16:33:41.646Z,54.20
2023-10-10T16:36:10.631Z,55.29
2023-10-10T16:38:39.523Z,56.09
2023-10-10T16:41:08.853Z,56.64
2023-10-10T16:43:54.149Z,57.08
2023-10-10T16:46:31.401Z,57.79
2023-10-10T16:48:59.782Z,58.97
2023-10-10T16:51:28.234Z,59.84
2023-10-10T16:53:56.721Z,60.43
2023-10-10T16:56:24.828Z,60.99
2023-10-10T16:58:53.979Z,61.31
2023-10-10T17:01:23.501Z,61.40
2023-10-10T17:03:55.813Z,62.15
2023-10-10T17:06:26.507Z,62.67
2023-10-10T17:08:56.127Z,63.21
2023-10-10T17:11:24.782Z,63.59
2023-10-10T17:13:55.092Z,63.85
2023-10-10T17:16:29.998Z,64.18
2023-10-10T17:19:14.660Z,64.50
2023-10-10T17:21:47.799Z,64.72
2023-10-10T17:24:17.181Z,64.95
2023-10-10T17:26:45.612Z,65.56
2023-10-10T17:29:14.902Z,64.76
2023-10-10T17:31:42.914Z,65.13
2023-10-10T17:34:16.559Z,65.87
2023-10-10T17:36:44.865Z,66.48
2023-10-10T17:39:16.340Z,66.91
2023-10-10T17:41:48.959Z,67.00
2023-10-10T17:44:19.579Z,67.15
2023-10-10T17:46:48.618Z,67.18
2023-10-10T17:49:16.724Z,66.97
2023-10-10T17:51:46.138Z,67.16
2023-10-10T17:54:16.888Z,66.90
2023-10-10T17:56:45.811Z,67.70
2023-10-10T17:59:13.714Z,67.85
2023-10-10T18:01:44.731Z,67.92
2023-10-10T18:04:14.539Z,68.54
2023-10-10T18:06:42.559Z,68.88
2023-10-10T18:09:10.313Z,68.95
2023-10-10T18:11:38.656Z,69.24
2023-10-10T18:14:08.290Z,68.73
2023-10-10T18:16:36.754Z,68.53
2023-10-10T18:19:06.418Z,68.80
2023-10-10T18:21:34.561Z,68.72
2023-10-10T18:24:07.066Z,68.71
2023-10-10T18:26:38.634Z,69.38
2023-10-10T18:29:06.498Z,69.22
2023-10-10T18:31:35.567Z,68.92
2023-10-10T18:34:05.263Z,68.79
2023-10-10T18:36:37.660Z,69.79
2023-10-10T18:39:12.842Z,70.19
2023-10-10T18:41:42.459Z,70.83
2023-10-10T18:44:10.966Z,70.38
2023-10-10T18:46:39.069Z,70.65
2023-10-10T18:49:07.319Z,70.81
2023-10-10T18:51:36.445Z,70.12
2023-10-10T18:54:09.457Z,70.17
2023-10-10T18:56:38.925Z,70.14
2023-10-10T18:59:06.754Z,70.67
2023-10-10T19:01:38.436Z,70.44
2023-10-10T19:04:08.238Z,70.53
2023-10-10T19:06:39.938Z,70.80
2023-10-10T19:09:12.289Z,69.92
2023-10-10T19:11:40.556Z,70.38
2023-10-10T19:14:10.551Z,71.15
2023-10-10T19:16:38.321Z,71.47
2023-10-10T19:19:06.387Z,71.02
2023-10-10T19:21:34.085Z,71.58
2023-10-10T19:24:03.376Z,72.27
2023-10-10T19:26:31.545Z,71.41
2023-10-10T19:28:59.945Z,71.37
2023-10-10T19:31:27.657Z,70.57
2023-10-10T19:33:55.380Z,70.67
2023-10-10T19:36:23.238Z,71.03
2023-10-10T19:38:51.420Z,70.72
2023-10-10T19:41:20.424Z,70.29
2023-10-10T19:43:52.337Z,69.87
2023-10-10T19:46:21.111Z,70.01
2023-10-10T19:48:52.099Z,70.45
2023-10-10T19:51:21.089Z,70.44
2023-10-10T19:53:51.662Z,70.34
2023-10-10T19:56:22.181Z,70.81
2023-10-10T19:58:50.026Z,70.81
2023-10-10T20:01:18.008Z,70.50
2023-10-10T20:03:47.059Z,70.66
2023-10-10T20:06:16.531Z,70.71
2023-10-10T20:08:44.280Z,70.30
2023-10-10T20:11:13.047Z,70.61
2023-10-10T20:13:42.046Z,70.60
2023-10-10T20:16:15.661Z,71.25
2023-10-10T20:18:45.283Z,71.46
2023-10-10T20:21:14.083Z,71.51
2023-10-10T20:23:43.334Z,71.20
2023-10-10T20:26:12.912Z,70.84
2023-10-10T20:28:41.976Z,71.05
2023-10-10T20:31:10.629Z,69.72
2023-10-10T20:33:38.609Z,70.28
2023-10-10T20:36:07.826Z,70.07
2023-10-10T20:38:35.665Z,69.60
2023-10-10T20:41:05.242Z,69.01
2023-10-10T20:43:33.104Z,68.81
2023-10-10T20:46:02.044Z,68.41
2023-10-10T20:48:29.803Z,68.48
2023-10-10T20:50:57.495Z,68.42
2023-10-10T20:53:25.138Z,67.74
2023-10-10T20:55:52.790Z,68.37
2023-10-10T20:58:20.382Z,69.44
2023-10-10T21:00:48.106Z,69.41
2023-10-10T21:03:17.270Z,69.14
2023-10-10T21:05:45.301Z,69.07
2023-10-10T21:08:13.073Z,69.65
2023-10-10T21:10:41.668Z,69.01
2023-10-10T21:13:09.575Z,69.63
2023-10-10T21:15:37.507Z,68.74
2023-10-10T21:18:09.034Z,69.45
2023-10-10T21:20:52.079Z,69.33
2023-10-10T21:23:28.212Z,70.27
2023-10-10T21:25:55.869Z,69.89
2023-10-10T21:28:23.935Z,69.69
2023-10-10T21:30:52.041Z,68.43
2023-10-10T21:33:20.064Z,68.98
2023-10-10T21:35:50.634Z,69.03
2023-10-10T21:38:18.950Z,69.95
2023-10-10T21:40:46.558Z,69.71
2023-10-10T21:43:14.837Z,70.28
2023-10-10T21:45:42.631Z,71.23
2023-10-10T21:48:11.914Z,71.19
2023-10-10T21:50:41.758Z,71.79
2023-10-10T21:53:10.951Z,71.49
2023-10-10T21:55:39.471Z,71.57
2023-10-10T21:58:07.343Z,71.35
2023-10-10T22:00:56.206Z,71.86
2023-10-10T22:03:26.493Z,72.20
2023-10-10T22:05:54.395Z,71.27
2023-10-10T22:08:26.944Z,71.62
2023-10-10T22:10:55.408Z,72.09
2023-10-10T22:13:24.589Z,72.46
2023-10-10T22:15:52.878Z,71.87
2023-10-10T22:18:21.111Z,72.16
2023-10-10T22:20:48.780Z,72.22
2023-10-10T22:23:16.869Z,71.73
2023-10-10T22:25:45.828Z,71.12
2023-10-10T22:28:13.487Z,71.68
2023-10-10T22:30:42.016Z,71.21
2023-10-10T22:33:11.556Z,70.33
2023-10-10T22:35:40.578Z,70.87
2023-10-10T22:38:13.978Z,70.41
2023-10-10T22:40:41.728Z,70.11
2023-10-10T22:43:16.145Z,70.88
2023-10-10T22:45:45.672Z,71.67
2023-10-10T22:48:15.841Z,71.51
2023-10-10T22:50:43.990Z,72.40
2023-10-10T22:53:11.976Z,71.46
2023-10-10T22:55:42.625Z,71.79
2023-10-10T22:58:16.079Z,72.25
2023-10-10T23:00:43.709Z,72.11
2023-10-10T23:03:12.018Z,72.72
2023-10-10T23:05:43.029Z,72.94
2023-10-10T23:08:12.181Z,72.65
2023-10-10T23:10:41.259Z,72.56
2023-10-10T23:13:13.882Z,72.54
2023-10-10T23:15:42.737Z,72.98
2023-10-10T23:18:12.072Z,72.57
2023-10-10T23:20:42.178Z,73.02
2023-10-10T23:23:10.620Z,72.88
2023-10-10T23:25:38.220Z,72.17
2023-10-10T23:28:06.253Z,72.37
2023-10-10T23:30:34.518Z,72.46
2023-10-10T23:33:04.643Z,72.39
2023-10-10T23:35:34.283Z,72.20
2023-10-10T23:38:06.180Z,71.98
2023-10-10T23:40:40.119Z,72.77
2023-10-10T23:43:08.589Z,72.13
2023-10-10T23:45:42.791Z,72.31
2023-10-10T23:48:16.940Z,72.47
2023-10-10T23:50:45.726Z,72.67
2023-10-10T23:53:15.288Z,72.62
2023-10-10T23:55:47.894Z,72.27
2023-10-10T23:58:16.796Z,72.37
